Campos Belos, Brazil
Current Conditions -  °F | °C
As of 12:00 PM on Monday 22 Dec 2014 (Local Time) from SBBR Reporting Station
Scattered Clouds Scattered Clouds  
Wind Chill: 79°   Ceiling: Unl
Heat Index: 81°   Visibility: 6mi
Dew Point: 64°   Wind: 9mph
Humidity: 61%   Direction: 20°NNE
Pressure: 30.12"   Gusts: NA
Location:  13.04°S, 46.77°W
Report Text: SBBR 221400Z 02008KT 9999 SCT025 SCT080 26/18 Q1020
Loading
Personal Weather Stations






























Interactive Weather Map New forecast layout! Learn more

10-Day Weather Forecast

Advertisements
Track Severe Weather on mobile